sensor_id;sensor_type;location;lat;lon;timestamp;P1;durP1;ratioP1;P2;durP2;ratioP2
41436;SDS011;27178;49.460;10.850;2022-12-18T00:00:08;58.30;;;42.27;;
41436;SDS011;27178;49.460;10.850;2022-12-18T00:02:39;55.40;;;41.37;;
41436;SDS011;27178;49.460;10.850;2022-12-18T00:05:07;49.80;;;38.97;;
41436;SDS011;27178;49.460;10.850;2022-12-18T00:07:36;54.67;;;40.37;;
41436;SDS011;27178;49.460;10.850;2022-12-18T00:10:05;53.23;;;39.87;;
41436;SDS011;27178;49.460;10.850;2022-12-18T00:12:35;50.17;;;37.10;;
41436;SDS011;27178;49.460;10.850;2022-12-18T00:15:03;51.07;;;38.30;;
41436;SDS011;27178;49.460;10.850;2022-12-18T00:17:32;51.07;;;36.93;;
41436;SDS011;27178;49.460;10.850;2022-12-18T00:20:02;48.13;;;35.30;;
41436;SDS011;27178;49.460;10.850;2022-12-18T00:22:31;45.87;;;34.57;;
41436;SDS011;27178;49.460;10.850;2022-12-18T00:24:59;44.23;;;33.27;;
41436;SDS011;27178;49.460;10.850;2022-12-18T00:27:27;56.13;;;38.70;;
41436;SDS011;27178;49.460;10.850;2022-12-18T00:29:55;46.90;;;34.73;;
41436;SDS011;27178;49.460;10.850;2022-12-18T00:32:24;43.73;;;32.43;;
41436;SDS011;27178;49.460;10.850;2022-12-18T00:34:52;43.03;;;32.53;;
41436;SDS011;27178;49.460;10.850;2022-12-18T00:37:22;43.70;;;32.27;;
41436;SDS011;27178;49.460;10.850;2022-12-18T00:39:50;43.20;;;32.90;;
41436;SDS011;27178;49.460;10.850;2022-12-18T00:42:18;43.73;;;33.80;;
41436;SDS011;27178;49.460;10.850;2022-12-18T00:45:05;49.77;;;35.57;;
41436;SDS011;27178;49.460;10.850;2022-12-18T00:47:38;45.83;;;34.07;;
41436;SDS011;27178;49.460;10.850;2022-12-18T00:50:08;51.40;;;37.00;;
41436;SDS011;27178;49.460;10.850;2022-12-18T00:52:38;48.27;;;35.17;;
41436;SDS011;27178;49.460;10.850;2022-12-18T00:55:07;49.17;;;34.37;;
41436;SDS011;27178;49.460;10.850;2022-12-18T00:57:35;44.03;;;31.47;;
41436;SDS011;27178;49.460;10.850;2022-12-18T01:00:07;46.43;;;32.80;;
41436;SDS011;27178;49.460;10.850;2022-12-18T01:02:37;43.43;;;32.10;;
41436;SDS011;27178;49.460;10.850;2022-12-18T01:05:06;43.00;;;32.37;;
41436;SDS011;27178;49.460;10.850;2022-12-18T01:07:36;42.20;;;31.50;;
41436;SDS011;27178;49.460;10.850;2022-12-18T01:10:06;47.83;;;34.13;;
41436;SDS011;27178;49.460;10.850;2022-12-18T01:12:37;45.03;;;33.03;;
41436;SDS011;27178;49.460;10.850;2022-12-18T01:15:06;50.67;;;34.33;;
41436;SDS011;27178;49.460;10.850;2022-12-18T01:17:35;43.73;;;32.83;;
41436;SDS011;27178;49.460;10.850;2022-12-18T01:20:04;43.70;;;33.43;;
41436;SDS011;27178;49.460;10.850;2022-12-18T01:22:33;39.47;;;29.20;;
41436;SDS011;27178;49.460;10.850;2022-12-18T01:25:02;38.20;;;29.23;;
41436;SDS011;27178;49.460;10.850;2022-12-18T01:27:33;37.70;;;28.67;;
41436;SDS011;27178;49.460;10.850;2022-12-18T01:30:02;38.80;;;29.83;;
41436;SDS011;27178;49.460;10.850;2022-12-18T01:32:32;39.03;;;27.33;;
41436;SDS011;27178;49.460;10.850;2022-12-18T01:35:01;35.60;;;27.23;;
41436;SDS011;27178;49.460;10.850;2022-12-18T01:37:29;43.63;;;31.17;;
41436;SDS011;27178;49.460;10.850;2022-12-18T01:39:57;42.37;;;31.97;;
41436;SDS011;27178;49.460;10.850;2022-12-18T01:42:26;44.27;;;31.60;;
41436;SDS011;27178;49.460;10.850;2022-12-18T01:44:57;40.77;;;29.70;;
41436;SDS011;27178;49.460;10.850;2022-12-18T01:47:28;43.93;;;30.30;;
41436;SDS011;27178;49.460;10.850;2022-12-18T01:50:01;39.70;;;30.37;;
41436;SDS011;27178;49.460;10.850;2022-12-18T01:52:34;43.57;;;32.57;;
41436;SDS011;27178;49.460;10.850;2022-12-18T01:55:05;45.30;;;31.10;;
41436;SDS011;27178;49.460;10.850;2022-12-18T01:57:35;44.60;;;33.13;;
41436;SDS011;27178;49.460;10.850;2022-12-18T02:00:07;43.13;;;31.90;;
41436;SDS011;27178;49.460;10.850;2022-12-18T02:02:37;47.17;;;34.07;;
41436;SDS011;27178;49.460;10.850;2022-12-18T02:05:08;45.00;;;32.80;;
41436;SDS011;27178;49.460;10.850;2022-12-18T02:07:41;37.67;;;27.63;;
41436;SDS011;27178;49.460;10.850;2022-12-18T02:10:17;37.10;;;28.07;;
41436;SDS011;27178;49.460;10.850;2022-12-18T02:12:51;32.27;;;25.07;;
41436;SDS011;27178;49.460;10.850;2022-12-18T02:15:29;39.40;;;26.90;;
41436;SDS011;27178;49.460;10.850;2022-12-18T02:18:04;34.50;;;25.30;;
41436;SDS011;27178;49.460;10.850;2022-12-18T02:20:36;31.67;;;22.63;;
41436;SDS011;27178;49.460;10.850;2022-12-18T02:23:13;30.00;;;22.23;;
41436;SDS011;27178;49.460;10.850;2022-12-18T02:26:04;30.90;;;22.60;;
41436;SDS011;27178;49.460;10.850;2022-12-18T02:28:41;31.23;;;22.57;;
41436;SDS011;27178;49.460;10.850;2022-12-18T02:31:14;42.33;;;24.57;;
41436;SDS011;27178;49.460;10.850;2022-12-18T02:33:46;34.77;;;24.87;;
41436;SDS011;27178;49.460;10.850;2022-12-18T02:36:16;36.23;;;26.30;;
41436;SDS011;27178;49.460;10.850;2022-12-18T02:38:47;32.43;;;25.47;;
41436;SDS011;27178;49.460;10.850;2022-12-18T02:44:45;33.83;;;24.77;;
41436;SDS011;27178;49.460;10.850;2022-12-18T02:47:16;32.83;;;24.73;;
41436;SDS011;27178;49.460;10.850;2022-12-18T02:49:49;32.53;;;25.03;;
41436;SDS011;27178;49.460;10.850;2022-12-18T02:52:28;33.97;;;25.00;;
41436;SDS011;27178;49.460;10.850;2022-12-18T02:55:04;33.20;;;25.00;;
41436;SDS011;27178;49.460;10.850;2022-12-18T02:57:44;33.90;;;25.17;;
41436;SDS011;27178;49.460;10.850;2022-12-18T03:00:19;33.50;;;24.47;;
41436;SDS011;27178;49.460;10.850;2022-12-18T03:02:51;35.63;;;25.87;;
41436;SDS011;27178;49.460;10.850;2022-12-18T03:05:29;34.80;;;24.80;;
41436;SDS011;27178;49.460;10.850;2022-12-18T03:08:03;36.20;;;25.70;;
41436;SDS011;27178;49.460;10.850;2022-12-18T03:10:45;34.13;;;25.23;;
41436;SDS011;27178;49.460;10.850;2022-12-18T03:13:19;36.17;;;24.63;;
41436;SDS011;27178;49.460;10.850;2022-12-18T03:15:52;34.83;;;25.30;;
41436;SDS011;27178;49.460;10.850;2022-12-18T03:18:25;35.80;;;25.43;;
41436;SDS011;27178;49.460;10.850;2022-12-18T03:20:58;37.67;;;26.07;;
41436;SDS011;27178;49.460;10.850;2022-12-18T03:23:32;35.20;;;24.57;;
41436;SDS011;27178;49.460;10.850;2022-12-18T03:26:06;34.50;;;25.50;;
41436;SDS011;27178;49.460;10.850;2022-12-18T03:28:38;34.10;;;24.17;;
41436;SDS011;27178;49.460;10.850;2022-12-18T03:31:13;35.50;;;25.60;;
41436;SDS011;27178;49.460;10.850;2022-12-18T03:33:43;34.70;;;24.90;;
41436;SDS011;27178;49.460;10.850;2022-12-18T03:36:15;34.57;;;24.90;;
41436;SDS011;27178;49.460;10.850;2022-12-18T03:38:43;34.20;;;24.50;;
41436;SDS011;27178;49.460;10.850;2022-12-18T03:41:15;32.73;;;24.70;;
41436;SDS011;27178;49.460;10.850;2022-12-18T03:43:49;35.20;;;25.20;;
41436;SDS011;27178;49.460;10.850;2022-12-18T03:46:26;33.90;;;24.97;;
41436;SDS011;27178;49.460;10.850;2022-12-18T03:48:59;33.10;;;24.90;;
41436;SDS011;27178;49.460;10.850;2022-12-18T03:51:36;32.80;;;22.90;;
41436;SDS011;27178;49.460;10.850;2022-12-18T03:54:08;32.57;;;23.83;;
41436;SDS011;27178;49.460;10.850;2022-12-18T03:56:38;36.87;;;24.73;;
41436;SDS011;27178;49.460;10.850;2022-12-18T03:59:11;34.43;;;24.87;;
41436;SDS011;27178;49.460;10.850;2022-12-18T04:01:45;36.60;;;25.70;;
41436;SDS011;27178;49.460;10.850;2022-12-18T04:04:15;35.33;;;25.40;;
41436;SDS011;27178;49.460;10.850;2022-12-18T04:06:46;37.33;;;23.87;;
41436;SDS011;27178;49.460;10.850;2022-12-18T04:09:17;35.77;;;25.33;;
41436;SDS011;27178;49.460;10.850;2022-12-18T04:11:46;34.73;;;24.90;;
41436;SDS011;27178;49.460;10.850;2022-12-18T04:14:15;38.77;;;26.27;;
41436;SDS011;27178;49.460;10.850;2022-12-18T04:16:45;39.03;;;27.30;;
41436;SDS011;27178;49.460;10.850;2022-12-18T04:19:13;37.30;;;25.07;;
41436;SDS011;27178;49.460;10.850;2022-12-18T04:21:41;34.87;;;25.23;;
41436;SDS011;27178;49.460;10.850;2022-12-18T04:24:09;34.83;;;25.83;;
41436;SDS011;27178;49.460;10.850;2022-12-18T04:26:38;33.47;;;24.87;;
41436;SDS011;27178;49.460;10.850;2022-12-18T04:29:06;37.63;;;25.73;;
41436;SDS011;27178;49.460;10.850;2022-12-18T04:31:34;34.50;;;25.87;;
41436;SDS011;27178;49.460;10.850;2022-12-18T04:34:05;36.10;;;24.97;;
41436;SDS011;27178;49.460;10.850;2022-12-18T04:36:33;39.97;;;25.90;;
41436;SDS011;27178;49.460;10.850;2022-12-18T04:39:01;36.00;;;25.07;;
41436;SDS011;27178;49.460;10.850;2022-12-18T04:41:30;38.07;;;25.83;;
41436;SDS011;27178;49.460;10.850;2022-12-18T04:43:58;38.30;;;26.03;;
41436;SDS011;27178;49.460;10.850;2022-12-18T04:46:27;35.57;;;24.60;;
41436;SDS011;27178;49.460;10.850;2022-12-18T04:48:55;33.80;;;24.10;;
41436;SDS011;27178;49.460;10.850;2022-12-18T04:51:25;35.43;;;23.83;;
41436;SDS011;27178;49.460;10.850;2022-12-18T04:53:54;33.60;;;23.07;;
41436;SDS011;27178;49.460;10.850;2022-12-18T04:56:22;28.57;;;21.33;;
41436;SDS011;27178;49.460;10.850;2022-12-18T04:58:50;35.40;;;24.67;;
41436;SDS011;27178;49.460;10.850;2022-12-18T05:01:19;31.60;;;21.67;;
41436;SDS011;27178;49.460;10.850;2022-12-18T05:03:47;36.67;;;23.83;;
41436;SDS011;27178;49.460;10.850;2022-12-18T05:06:16;34.80;;;24.60;;
41436;SDS011;27178;49.460;10.850;2022-12-18T05:08:46;32.17;;;23.23;;
41436;SDS011;27178;49.460;10.850;2022-12-18T05:11:15;33.83;;;22.70;;
41436;SDS011;27178;49.460;10.850;2022-12-18T05:13:43;31.83;;;22.70;;
41436;SDS011;27178;49.460;10.850;2022-12-18T05:16:12;34.43;;;22.90;;
41436;SDS011;27178;49.460;10.850;2022-12-18T05:18:42;32.50;;;23.03;;
41436;SDS011;27178;49.460;10.850;2022-12-18T05:21:10;32.57;;;22.13;;
41436;SDS011;27178;49.460;10.850;2022-12-18T05:23:39;31.30;;;21.90;;
41436;SDS011;27178;49.460;10.850;2022-12-18T05:26:10;32.17;;;21.37;;
41436;SDS011;27178;49.460;10.850;2022-12-18T05:28:43;27.23;;;20.07;;
41436;SDS011;27178;49.460;10.850;2022-12-18T05:31:12;29.37;;;21.60;;
41436;SDS011;27178;49.460;10.850;2022-12-18T05:33:41;32.10;;;21.77;;
41436;SDS011;27178;49.460;10.850;2022-12-18T05:36:10;30.40;;;21.00;;
41436;SDS011;27178;49.460;10.850;2022-12-18T05:38:39;29.10;;;21.33;;
41436;SDS011;27178;49.460;10.850;2022-12-18T05:41:07;28.97;;;21.70;;
41436;SDS011;27178;49.460;10.850;2022-12-18T05:43:38;28.77;;;19.63;;
41436;SDS011;27178;49.460;10.850;2022-12-18T05:46:09;26.60;;;19.10;;
41436;SDS011;27178;49.460;10.850;2022-12-18T05:48:40;28.00;;;19.50;;
41436;SDS011;27178;49.460;10.850;2022-12-18T05:51:09;27.20;;;19.30;;
41436;SDS011;27178;49.460;10.850;2022-12-18T05:53:39;27.93;;;19.47;;
41436;SDS011;27178;49.460;10.850;2022-12-18T05:56:10;26.47;;;20.07;;
41436;SDS011;27178;49.460;10.850;2022-12-18T05:58:41;29.57;;;20.47;;
41436;SDS011;27178;49.460;10.850;2022-12-18T06:01:10;28.13;;;20.33;;
41436;SDS011;27178;49.460;10.850;2022-12-18T06:03:40;27.50;;;18.87;;
41436;SDS011;27178;49.460;10.850;2022-12-18T06:06:13;28.30;;;20.27;;
41436;SDS011;27178;49.460;10.850;2022-12-18T06:08:41;25.83;;;18.40;;
41436;SDS011;27178;49.460;10.850;2022-12-18T06:11:15;28.17;;;19.90;;
41436;SDS011;27178;49.460;10.850;2022-12-18T06:13:45;25.83;;;18.77;;
41436;SDS011;27178;49.460;10.850;2022-12-18T06:16:19;26.10;;;19.13;;
41436;SDS011;27178;49.460;10.850;2022-12-18T06:18:48;24.57;;;18.07;;
41436;SDS011;27178;49.460;10.850;2022-12-18T06:21:16;24.63;;;18.60;;
41436;SDS011;27178;49.460;10.850;2022-12-18T06:23:45;24.57;;;19.07;;
41436;SDS011;27178;49.460;10.850;2022-12-18T06:26:14;26.40;;;19.17;;
41436;SDS011;27178;49.460;10.850;2022-12-18T06:28:48;24.60;;;17.40;;
41436;SDS011;27178;49.460;10.850;2022-12-18T06:31:16;26.57;;;17.83;;
41436;SDS011;27178;49.460;10.850;2022-12-18T06:33:45;24.90;;;17.57;;
41436;SDS011;27178;49.460;10.850;2022-12-18T06:36:13;26.50;;;18.50;;
41436;SDS011;27178;49.460;10.850;2022-12-18T06:38:43;25.67;;;18.90;;
41436;SDS011;27178;49.460;10.850;2022-12-18T06:41:12;28.60;;;20.17;;
41436;SDS011;27178;49.460;10.850;2022-12-18T06:43:44;26.30;;;18.77;;
41436;SDS011;27178;49.460;10.850;2022-12-18T06:46:12;26.57;;;19.23;;
41436;SDS011;27178;49.460;10.850;2022-12-18T06:48:41;25.50;;;17.60;;
41436;SDS011;27178;49.460;10.850;2022-12-18T06:51:10;27.07;;;18.10;;
41436;SDS011;27178;49.460;10.850;2022-12-18T06:53:38;24.97;;;18.47;;
41436;SDS011;27178;49.460;10.850;2022-12-18T06:56:07;25.63;;;18.10;;
41436;SDS011;27178;49.460;10.850;2022-12-18T06:58:37;24.70;;;18.27;;
41436;SDS011;27178;49.460;10.850;2022-12-18T07:01:07;27.57;;;18.57;;
41436;SDS011;27178;49.460;10.850;2022-12-18T07:03:38;24.53;;;17.43;;
41436;SDS011;27178;49.460;10.850;2022-12-18T07:06:13;25.33;;;17.93;;
41436;SDS011;27178;49.460;10.850;2022-12-18T07:08:42;23.90;;;18.27;;
41436;SDS011;27178;49.460;10.850;2022-12-18T07:11:11;24.07;;;17.57;;
41436;SDS011;27178;49.460;10.850;2022-12-18T07:13:41;26.73;;;17.97;;
41436;SDS011;27178;49.460;10.850;2022-12-18T07:16:11;25.47;;;17.83;;
41436;SDS011;27178;49.460;10.850;2022-12-18T07:18:49;26.03;;;17.27;;
41436;SDS011;27178;49.460;10.850;2022-12-18T07:21:20;25.73;;;17.73;;
41436;SDS011;27178;49.460;10.850;2022-12-18T07:23:49;24.87;;;17.77;;
41436;SDS011;27178;49.460;10.850;2022-12-18T07:26:18;25.87;;;17.67;;
41436;SDS011;27178;49.460;10.850;2022-12-18T07:28:48;26.80;;;18.73;;
41436;SDS011;27178;49.460;10.850;2022-12-18T07:31:18;20.57;;;15.90;;
41436;SDS011;27178;49.460;10.850;2022-12-18T07:33:48;22.63;;;15.67;;
41436;SDS011;27178;49.460;10.850;2022-12-18T07:36:17;25.77;;;17.73;;
41436;SDS011;27178;49.460;10.850;2022-12-18T07:38:46;23.77;;;18.70;;
41436;SDS011;27178;49.460;10.850;2022-12-18T07:41:15;22.90;;;16.10;;
41436;SDS011;27178;49.460;10.850;2022-12-18T07:43:44;22.03;;;16.90;;
41436;SDS011;27178;49.460;10.850;2022-12-18T07:46:14;22.27;;;16.83;;
41436;SDS011;27178;49.460;10.850;2022-12-18T07:48:44;23.10;;;16.87;;
41436;SDS011;27178;49.460;10.850;2022-12-18T07:51:15;25.60;;;17.80;;
41436;SDS011;27178;49.460;10.850;2022-12-18T07:53:44;23.77;;;17.53;;
41436;SDS011;27178;49.460;10.850;2022-12-18T07:56:17;25.33;;;18.50;;
41436;SDS011;27178;49.460;10.850;2022-12-18T07:58:56;23.27;;;17.43;;
41436;SDS011;27178;49.460;10.850;2022-12-18T08:01:27;22.10;;;17.10;;
41436;SDS011;27178;49.460;10.850;2022-12-18T08:03:56;25.27;;;18.13;;
41436;SDS011;27178;49.460;10.850;2022-12-18T08:06:25;23.70;;;17.73;;
41436;SDS011;27178;49.460;10.850;2022-12-18T08:08:53;23.27;;;16.80;;
41436;SDS011;27178;49.460;10.850;2022-12-18T08:11:24;23.63;;;17.17;;
41436;SDS011;27178;49.460;10.850;2022-12-18T08:13:54;23.93;;;19.07;;
41436;SDS011;27178;49.460;10.850;2022-12-18T08:16:23;25.13;;;18.77;;
41436;SDS011;27178;49.460;10.850;2022-12-18T08:18:53;24.67;;;17.50;;
41436;SDS011;27178;49.460;10.850;2022-12-18T08:21:23;22.57;;;17.07;;
41436;SDS011;27178;49.460;10.850;2022-12-18T08:23:53;22.03;;;16.97;;
41436;SDS011;27178;49.460;10.850;2022-12-18T08:26:23;20.50;;;16.47;;
41436;SDS011;27178;49.460;10.850;2022-12-18T08:28:53;24.77;;;17.77;;
41436;SDS011;27178;49.460;10.850;2022-12-18T08:31:22;22.20;;;17.03;;
41436;SDS011;27178;49.460;10.850;2022-12-18T08:33:51;22.20;;;17.20;;
41436;SDS011;27178;49.460;10.850;2022-12-18T08:36:22;21.10;;;16.13;;
41436;SDS011;27178;49.460;10.850;2022-12-18T08:38:52;23.67;;;18.20;;
41436;SDS011;27178;49.460;10.850;2022-12-18T08:41:21;19.13;;;15.57;;
41436;SDS011;27178;49.460;10.850;2022-12-18T08:43:49;21.43;;;16.67;;
41436;SDS011;27178;49.460;10.850;2022-12-18T08:46:35;21.63;;;16.50;;
41436;SDS011;27178;49.460;10.850;2022-12-18T08:49:06;19.47;;;15.20;;
41436;SDS011;27178;49.460;10.850;2022-12-18T08:51:36;20.97;;;15.83;;
41436;SDS011;27178;49.460;10.850;2022-12-18T08:54:05;19.93;;;15.07;;
41436;SDS011;27178;49.460;10.850;2022-12-18T08:56:33;18.30;;;14.90;;
41436;SDS011;27178;49.460;10.850;2022-12-18T08:59:02;18.30;;;14.43;;
41436;SDS011;27178;49.460;10.850;2022-12-18T09:01:31;17.77;;;14.57;;
41436;SDS011;27178;49.460;10.850;2022-12-18T09:04:00;19.63;;;15.27;;
41436;SDS011;27178;49.460;10.850;2022-12-18T09:06:31;19.47;;;14.03;;
41436;SDS011;27178;49.460;10.850;2022-12-18T09:08:59;19.57;;;14.97;;
41436;SDS011;27178;49.460;10.850;2022-12-18T09:11:28;18.27;;;14.03;;
41436;SDS011;27178;49.460;10.850;2022-12-18T09:13:57;19.53;;;15.13;;
41436;SDS011;27178;49.460;10.850;2022-12-18T09:16:28;18.67;;;14.67;;
41436;SDS011;27178;49.460;10.850;2022-12-18T09:18:58;19.43;;;14.63;;
41436;SDS011;27178;49.460;10.850;2022-12-18T09:21:27;16.67;;;13.57;;
41436;SDS011;27178;49.460;10.850;2022-12-18T09:24:04;19.23;;;14.13;;
41436;SDS011;27178;49.460;10.850;2022-12-18T09:26:34;18.50;;;14.10;;
41436;SDS011;27178;49.460;10.850;2022-12-18T09:29:05;18.87;;;15.20;;
41436;SDS011;27178;49.460;10.850;2022-12-18T09:31:35;21.23;;;15.70;;
41436;SDS011;27178;49.460;10.850;2022-12-18T09:34:04;19.10;;;13.90;;
41436;SDS011;27178;49.460;10.850;2022-12-18T09:36:32;20.10;;;14.27;;
41436;SDS011;27178;49.460;10.850;2022-12-18T09:39:01;18.73;;;15.37;;
41436;SDS011;27178;49.460;10.850;2022-12-18T09:41:42;19.87;;;14.50;;
41436;SDS011;27178;49.460;10.850;2022-12-18T09:44:18;21.00;;;15.77;;
41436;SDS011;27178;49.460;10.850;2022-12-18T09:46:52;18.17;;;15.17;;
41436;SDS011;27178;49.460;10.850;2022-12-18T09:49:37;20.90;;;14.50;;
41436;SDS011;27178;49.460;10.850;2022-12-18T09:52:11;20.27;;;15.73;;
41436;SDS011;27178;49.460;10.850;2022-12-18T09:54:44;18.57;;;14.37;;
41436;SDS011;27178;49.460;10.850;2022-12-18T09:57:19;19.27;;;14.47;;
41436;SDS011;27178;49.460;10.850;2022-12-18T09:59:50;17.57;;;14.23;;
41436;SDS011;27178;49.460;10.850;2022-12-18T10:02:22;17.67;;;14.80;;
41436;SDS011;27178;49.460;10.850;2022-12-18T10:04:55;18.90;;;14.97;;
41436;SDS011;27178;49.460;10.850;2022-12-18T10:07:34;20.80;;;16.37;;
41436;SDS011;27178;49.460;10.850;2022-12-18T10:10:14;19.70;;;15.00;;
41436;SDS011;27178;49.460;10.850;2022-12-18T10:12:56;17.97;;;14.43;;
41436;SDS011;27178;49.460;10.850;2022-12-18T10:15:33;19.87;;;16.13;;
41436;SDS011;27178;49.460;10.850;2022-12-18T10:18:10;17.73;;;15.43;;
41436;SDS011;27178;49.460;10.850;2022-12-18T10:20:49;20.17;;;16.93;;
41436;SDS011;27178;49.460;10.850;2022-12-18T10:23:21;18.63;;;15.27;;
41436;SDS011;27178;49.460;10.850;2022-12-18T10:25:55;21.30;;;17.00;;
41436;SDS011;27178;49.460;10.850;2022-12-18T10:28:30;18.87;;;15.50;;
41436;SDS011;27178;49.460;10.850;2022-12-18T10:31:00;19.07;;;15.70;;
41436;SDS011;27178;49.460;10.850;2022-12-18T10:33:30;18.90;;;15.50;;
41436;SDS011;27178;49.460;10.850;2022-12-18T10:36:00;20.20;;;16.03;;
41436;SDS011;27178;49.460;10.850;2022-12-18T10:38:29;17.43;;;13.97;;
41436;SDS011;27178;49.460;10.850;2022-12-18T10:41:00;19.43;;;16.07;;
41436;SDS011;27178;49.460;10.850;2022-12-18T10:43:31;19.43;;;16.63;;
41436;SDS011;27178;49.460;10.850;2022-12-18T10:46:03;21.33;;;16.37;;
41436;SDS011;27178;49.460;10.850;2022-12-18T10:48:41;19.33;;;15.43;;
41436;SDS011;27178;49.460;10.850;2022-12-18T10:51:21;19.70;;;15.70;;
41436;SDS011;27178;49.460;10.850;2022-12-18T10:53:57;20.77;;;15.97;;
41436;SDS011;27178;49.460;10.850;2022-12-18T10:56:28;18.03;;;15.30;;
41436;SDS011;27178;49.460;10.850;2022-12-18T10:59:00;18.67;;;15.00;;
41436;SDS011;27178;49.460;10.850;2022-12-18T11:01:34;18.13;;;15.07;;
41436;SDS011;27178;49.460;10.850;2022-12-18T11:04:19;21.07;;;16.60;;
41436;SDS011;27178;49.460;10.850;2022-12-18T11:06:55;21.33;;;16.47;;
41436;SDS011;27178;49.460;10.850;2022-12-18T11:09:26;19.83;;;16.03;;
41436;SDS011;27178;49.460;10.850;2022-12-18T11:11:55;19.80;;;16.80;;
41436;SDS011;27178;49.460;10.850;2022-12-18T11:14:28;20.37;;;15.83;;
41436;SDS011;27178;49.460;10.850;2022-12-18T11:16:58;18.13;;;16.03;;
41436;SDS011;27178;49.460;10.850;2022-12-18T11:19:52;20.03;;;16.57;;
41436;SDS011;27178;49.460;10.850;2022-12-18T11:22:24;18.47;;;15.50;;
41436;SDS011;27178;49.460;10.850;2022-12-18T11:24:56;19.50;;;16.37;;
41436;SDS011;27178;49.460;10.850;2022-12-18T11:27:47;19.00;;;15.57;;
41436;SDS011;27178;49.460;10.850;2022-12-18T11:30:22;19.43;;;15.50;;
41436;SDS011;27178;49.460;10.850;2022-12-18T11:32:54;20.17;;;16.93;;
41436;SDS011;27178;49.460;10.850;2022-12-18T11:35:30;22.43;;;16.53;;
41436;SDS011;27178;49.460;10.850;2022-12-18T11:38:17;21.60;;;15.90;;
41436;SDS011;27178;49.460;10.850;2022-12-18T11:40:51;20.77;;;16.40;;
41436;SDS011;27178;49.460;10.850;2022-12-18T11:43:27;23.33;;;17.53;;
41436;SDS011;27178;49.460;10.850;2022-12-18T11:46:01;20.17;;;16.30;;
41436;SDS011;27178;49.460;10.850;2022-12-18T11:48:41;19.77;;;16.67;;
41436;SDS011;27178;49.460;10.850;2022-12-18T11:51:14;21.03;;;17.53;;
41436;SDS011;27178;49.460;10.850;2022-12-18T11:53:52;21.00;;;16.70;;
41436;SDS011;27178;49.460;10.850;2022-12-18T11:56:26;20.70;;;17.00;;
41436;SDS011;27178;49.460;10.850;2022-12-18T11:59:01;19.87;;;16.57;;
41436;SDS011;27178;49.460;10.850;2022-12-18T12:01:43;21.13;;;16.60;;
41436;SDS011;27178;49.460;10.850;2022-12-18T12:04:27;22.03;;;18.00;;
41436;SDS011;27178;49.460;10.850;2022-12-18T12:07:17;21.70;;;17.67;;
41436;SDS011;27178;49.460;10.850;2022-12-18T12:10:04;21.53;;;17.47;;
41436;SDS011;27178;49.460;10.850;2022-12-18T12:12:47;19.27;;;16.33;;
41436;SDS011;27178;49.460;10.850;2022-12-18T12:15:30;20.23;;;16.37;;
41436;SDS011;27178;49.460;10.850;2022-12-18T12:18:07;19.83;;;16.47;;
41436;SDS011;27178;49.460;10.850;2022-12-18T12:20:43;20.73;;;17.20;;
41436;SDS011;27178;49.460;10.850;2022-12-18T12:23:22;21.43;;;16.87;;
41436;SDS011;27178;49.460;10.850;2022-12-18T12:26:01;20.43;;;16.57;;
41436;SDS011;27178;49.460;10.850;2022-12-18T12:31:45;23.67;;;17.83;;
41436;SDS011;27178;49.460;10.850;2022-12-18T12:34:23;23.30;;;18.13;;
41436;SDS011;27178;49.460;10.850;2022-12-18T12:36:59;22.00;;;18.10;;
41436;SDS011;27178;49.460;10.850;2022-12-18T12:39:37;21.97;;;18.20;;
41436;SDS011;27178;49.460;10.850;2022-12-18T12:42:10;21.53;;;17.77;;
41436;SDS011;27178;49.460;10.850;2022-12-18T12:45:04;20.77;;;16.83;;
41436;SDS011;27178;49.460;10.850;2022-12-18T12:47:35;22.23;;;17.93;;
41436;SDS011;27178;49.460;10.850;2022-12-18T12:50:13;22.07;;;17.97;;
41436;SDS011;27178;49.460;10.850;2022-12-18T12:52:45;20.37;;;17.30;;
41436;SDS011;27178;49.460;10.850;2022-12-18T12:55:17;20.47;;;17.10;;
41436;SDS011;27178;49.460;10.850;2022-12-18T12:57:53;19.10;;;16.23;;
41436;SDS011;27178;49.460;10.850;2022-12-18T13:00:27;20.07;;;16.27;;
41436;SDS011;27178;49.460;10.850;2022-12-18T13:03:06;18.43;;;15.67;;
41436;SDS011;27178;49.460;10.850;2022-12-18T13:05:43;22.87;;;18.13;;
41436;SDS011;27178;49.460;10.850;2022-12-18T13:08:22;21.20;;;17.20;;
41436;SDS011;27178;49.460;10.850;2022-12-18T13:10:52;21.07;;;16.87;;
41436;SDS011;27178;49.460;10.850;2022-12-18T13:13:48;20.80;;;17.10;;
41436;SDS011;27178;49.460;10.850;2022-12-18T13:16:18;21.37;;;17.40;;
41436;SDS011;27178;49.460;10.850;2022-12-18T13:18:49;20.37;;;18.17;;
41436;SDS011;27178;49.460;10.850;2022-12-18T13:21:22;21.60;;;18.13;;
41436;SDS011;27178;49.460;10.850;2022-12-18T13:23:55;20.57;;;16.97;;
41436;SDS011;27178;49.460;10.850;2022-12-18T13:26:30;20.13;;;16.60;;
41436;SDS011;27178;49.460;10.850;2022-12-18T13:29:00;18.97;;;15.90;;
41436;SDS011;27178;49.460;10.850;2022-12-18T13:34:28;19.70;;;16.33;;
41436;SDS011;27178;49.460;10.850;2022-12-18T13:43:23;20.67;;;17.43;;
41436;SDS011;27178;49.460;10.850;2022-12-18T13:45:59;21.47;;;17.20;;
41436;SDS011;27178;49.460;10.850;2022-12-18T13:48:49;20.13;;;17.37;;
41436;SDS011;27178;49.460;10.850;2022-12-18T13:51:25;22.00;;;17.90;;
41436;SDS011;27178;49.460;10.850;2022-12-18T13:53:56;19.83;;;17.20;;
41436;SDS011;27178;49.460;10.850;2022-12-18T13:56:28;21.80;;;18.27;;
41436;SDS011;27178;49.460;10.850;2022-12-18T13:59:05;19.90;;;16.63;;
41436;SDS011;27178;49.460;10.850;2022-12-18T14:01:46;23.07;;;17.83;;
41436;SDS011;27178;49.460;10.850;2022-12-18T14:04:20;21.63;;;17.80;;
41436;SDS011;27178;49.460;10.850;2022-12-18T14:06:52;23.17;;;18.10;;
41436;SDS011;27178;49.460;10.850;2022-12-18T14:09:27;20.63;;;17.00;;
41436;SDS011;27178;49.460;10.850;2022-12-18T14:11:57;19.17;;;16.50;;
41436;SDS011;27178;49.460;10.850;2022-12-18T14:14:45;22.27;;;17.20;;
41436;SDS011;27178;49.460;10.850;2022-12-18T14:17:17;19.10;;;16.00;;
41436;SDS011;27178;49.460;10.850;2022-12-18T14:19:48;21.67;;;16.90;;
41436;SDS011;27178;49.460;10.850;2022-12-18T14:22:18;20.07;;;16.33;;
41436;SDS011;27178;49.460;10.850;2022-12-18T14:24:58;21.70;;;17.40;;
41436;SDS011;27178;49.460;10.850;2022-12-18T14:27:42;21.33;;;17.07;;
41436;SDS011;27178;49.460;10.850;2022-12-18T14:30:24;22.07;;;17.27;;
41436;SDS011;27178;49.460;10.850;2022-12-18T14:33:00;25.30;;;19.40;;
41436;SDS011;27178;49.460;10.850;2022-12-18T14:35:29;22.23;;;17.90;;
41436;SDS011;27178;49.460;10.850;2022-12-18T14:38:18;21.60;;;18.33;;
41436;SDS011;27178;49.460;10.850;2022-12-18T14:40:54;21.60;;;17.23;;
41436;SDS011;27178;49.460;10.850;2022-12-18T14:43:24;22.50;;;17.50;;
41436;SDS011;27178;49.460;10.850;2022-12-18T14:45:53;21.20;;;17.03;;
41436;SDS011;27178;49.460;10.850;2022-12-18T14:48:25;21.43;;;17.33;;
41436;SDS011;27178;49.460;10.850;2022-12-18T14:51:03;20.90;;;17.00;;
41436;SDS011;27178;49.460;10.850;2022-12-18T14:53:35;20.20;;;16.77;;